sensor_id;sensor_type;location;lat;lon;timestamp;P1;durP1;ratioP1;P2;durP2;ratioP2
14872;SDS011;7528;48.576;19.122;2023-04-23T00:00:51;15.47;;;13.87;;
14872;SDS011;7528;48.576;19.122;2023-04-23T00:05:58;14.60;;;11.83;;
14872;SDS011;7528;48.576;19.122;2023-04-23T00:11:05;13.67;;;12.13;;
14872;SDS011;7528;48.576;19.122;2023-04-23T00:16:09;15.03;;;11.00;;
14872;SDS011;7528;48.576;19.122;2023-04-23T00:21:14;11.80;;;10.13;;
14872;SDS011;7528;48.576;19.122;2023-04-23T00:26:17;15.13;;;11.60;;
14872;SDS011;7528;48.576;19.122;2023-04-23T00:31:19;13.67;;;11.37;;
14872;SDS011;7528;48.576;19.122;2023-04-23T00:36:25;15.07;;;12.10;;
14872;SDS011;7528;48.576;19.122;2023-04-23T00:41:27;14.03;;;12.17;;
14872;SDS011;7528;48.576;19.122;2023-04-23T00:46:30;17.87;;;15.90;;
14872;SDS011;7528;48.576;19.122;2023-04-23T00:51:33;15.63;;;13.60;;
14872;SDS011;7528;48.576;19.122;2023-04-23T00:56:36;14.80;;;13.07;;
14872;SDS011;7528;48.576;19.122;2023-04-23T01:01:38;13.70;;;11.83;;
14872;SDS011;7528;48.576;19.122;2023-04-23T01:06:43;98.53;;;54.77;;
14872;SDS011;7528;48.576;19.122;2023-04-23T01:11:47;123.40;;;69.83;;
14872;SDS011;7528;48.576;19.122;2023-04-23T01:16:50;37.13;;;25.40;;
14872;SDS011;7528;48.576;19.122;2023-04-23T01:21:55;19.10;;;16.23;;
14872;SDS011;7528;48.576;19.122;2023-04-23T01:27:02;15.27;;;13.03;;
14872;SDS011;7528;48.576;19.122;2023-04-23T01:32:06;13.40;;;10.77;;
14872;SDS011;7528;48.576;19.122;2023-04-23T01:37:11;11.83;;;10.47;;
14872;SDS011;7528;48.576;19.122;2023-04-23T01:42:17;12.47;;;11.07;;
14872;SDS011;7528;48.576;19.122;2023-04-23T01:47:20;15.27;;;13.00;;
14872;SDS011;7528;48.576;19.122;2023-04-23T01:52:23;13.53;;;12.10;;
14872;SDS011;7528;48.576;19.122;2023-04-23T01:57:26;12.70;;;11.27;;
14872;SDS011;7528;48.576;19.122;2023-04-23T02:02:29;19.37;;;12.30;;
14872;SDS011;7528;48.576;19.122;2023-04-23T02:07:31;13.93;;;12.30;;
14872;SDS011;7528;48.576;19.122;2023-04-23T02:12:37;13.00;;;11.70;;
14872;SDS011;7528;48.576;19.122;2023-04-23T02:17:40;16.13;;;13.60;;
14872;SDS011;7528;48.576;19.122;2023-04-23T02:22:43;15.27;;;13.67;;
14872;SDS011;7528;48.576;19.122;2023-04-23T02:27:48;16.17;;;13.47;;
14872;SDS011;7528;48.576;19.122;2023-04-23T02:32:50;16.87;;;14.43;;
14872;SDS011;7528;48.576;19.122;2023-04-23T02:37:53;16.70;;;14.97;;
14872;SDS011;7528;48.576;19.122;2023-04-23T02:42:57;14.43;;;12.43;;
14872;SDS011;7528;48.576;19.122;2023-04-23T02:48:00;16.90;;;14.60;;
14872;SDS011;7528;48.576;19.122;2023-04-23T02:53:02;16.40;;;13.47;;
14872;SDS011;7528;48.576;19.122;2023-04-23T02:58:06;14.90;;;13.37;;
14872;SDS011;7528;48.576;19.122;2023-04-23T03:03:10;14.77;;;13.27;;
14872;SDS011;7528;48.576;19.122;2023-04-23T03:08:13;13.67;;;12.00;;
14872;SDS011;7528;48.576;19.122;2023-04-23T03:13:17;13.73;;;12.33;;
14872;SDS011;7528;48.576;19.122;2023-04-23T03:18:20;16.10;;;12.50;;
14872;SDS011;7528;48.576;19.122;2023-04-23T03:23:26;15.90;;;12.37;;
14872;SDS011;7528;48.576;19.122;2023-04-23T03:28:30;13.67;;;11.57;;
14872;SDS011;7528;48.576;19.122;2023-04-23T03:33:33;13.27;;;11.30;;
14872;SDS011;7528;48.576;19.122;2023-04-23T03:38:37;14.20;;;12.27;;
14872;SDS011;7528;48.576;19.122;2023-04-23T03:43:40;13.30;;;11.90;;
14872;SDS011;7528;48.576;19.122;2023-04-23T03:48:53;12.40;;;11.10;;
14872;SDS011;7528;48.576;19.122;2023-04-23T03:54:00;12.70;;;11.27;;
14872;SDS011;7528;48.576;19.122;2023-04-23T03:59:14;13.73;;;10.87;;
14872;SDS011;7528;48.576;19.122;2023-04-23T04:04:18;20.73;;;16.53;;
14872;SDS011;7528;48.576;19.122;2023-04-23T04:09:23;24.73;;;20.27;;
14872;SDS011;7528;48.576;19.122;2023-04-23T04:14:27;16.40;;;14.13;;
14872;SDS011;7528;48.576;19.122;2023-04-23T04:19:29;28.80;;;25.70;;
14872;SDS011;7528;48.576;19.122;2023-04-23T04:24:32;22.50;;;19.83;;
14872;SDS011;7528;48.576;19.122;2023-04-23T04:29:36;27.30;;;24.40;;
14872;SDS011;7528;48.576;19.122;2023-04-23T04:34:40;27.00;;;24.10;;
14872;SDS011;7528;48.576;19.122;2023-04-23T04:39:42;18.93;;;17.07;;
14872;SDS011;7528;48.576;19.122;2023-04-23T04:44:46;20.27;;;17.97;;
14872;SDS011;7528;48.576;19.122;2023-04-23T04:49:48;20.33;;;18.23;;
14872;SDS011;7528;48.576;19.122;2023-04-23T04:54:51;15.47;;;13.20;;
14872;SDS011;7528;48.576;19.122;2023-04-23T04:59:54;16.80;;;13.00;;
14872;SDS011;7528;48.576;19.122;2023-04-23T05:04:57;15.20;;;12.97;;
14872;SDS011;7528;48.576;19.122;2023-04-23T05:09:59;16.40;;;14.70;;
14872;SDS011;7528;48.576;19.122;2023-04-23T05:15:04;16.20;;;14.30;;
14872;SDS011;7528;48.576;19.122;2023-04-23T05:20:08;17.57;;;15.70;;
14872;SDS011;7528;48.576;19.122;2023-04-23T05:25:12;18.20;;;16.30;;
14872;SDS011;7528;48.576;19.122;2023-04-23T05:30:16;15.77;;;14.07;;
14872;SDS011;7528;48.576;19.122;2023-04-23T05:35:19;17.17;;;15.50;;
14872;SDS011;7528;48.576;19.122;2023-04-23T05:40:21;15.43;;;13.37;;
14872;SDS011;7528;48.576;19.122;2023-04-23T05:45:25;15.47;;;13.87;;
14872;SDS011;7528;48.576;19.122;2023-04-23T05:50:28;15.73;;;14.03;;
14872;SDS011;7528;48.576;19.122;2023-04-23T05:55:31;15.23;;;13.63;;
14872;SDS011;7528;48.576;19.122;2023-04-23T06:00:35;17.27;;;14.20;;
14872;SDS011;7528;48.576;19.122;2023-04-23T06:05:40;14.47;;;12.97;;
14872;SDS011;7528;48.576;19.122;2023-04-23T06:10:42;16.07;;;12.93;;
14872;SDS011;7528;48.576;19.122;2023-04-23T06:15:46;14.47;;;12.97;;
14872;SDS011;7528;48.576;19.122;2023-04-23T06:20:49;13.77;;;12.30;;
14872;SDS011;7528;48.576;19.122;2023-04-23T06:25:52;13.60;;;12.27;;
14872;SDS011;7528;48.576;19.122;2023-04-23T06:30:56;12.37;;;10.43;;
14872;SDS011;7528;48.576;19.122;2023-04-23T06:35:58;11.93;;;10.63;;
14872;SDS011;7528;48.576;19.122;2023-04-23T06:41:01;13.43;;;10.17;;
14872;SDS011;7528;48.576;19.122;2023-04-23T06:46:05;11.23;;;9.67;;
14872;SDS011;7528;48.576;19.122;2023-04-23T06:51:09;9.33;;;8.43;;
14872;SDS011;7528;48.576;19.122;2023-04-23T06:56:11;12.57;;;9.27;;
14872;SDS011;7528;48.576;19.122;2023-04-23T07:01:15;9.10;;;8.20;;
14872;SDS011;7528;48.576;19.122;2023-04-23T07:06:18;10.87;;;7.83;;
14872;SDS011;7528;48.576;19.122;2023-04-23T07:11:20;8.40;;;7.60;;
14872;SDS011;7528;48.576;19.122;2023-04-23T07:16:24;8.77;;;7.87;;
14872;SDS011;7528;48.576;19.122;2023-04-23T07:21:31;8.67;;;7.30;;
14872;SDS011;7528;48.576;19.122;2023-04-23T07:26:34;7.68;;;6.85;;
14872;SDS011;7528;48.576;19.122;2023-04-23T07:31:39;8.75;;;6.90;;
14872;SDS011;7528;48.576;19.122;2023-04-23T07:36:42;8.15;;;6.20;;
14872;SDS011;7528;48.576;19.122;2023-04-23T07:41:45;8.25;;;7.45;;
14872;SDS011;7528;48.576;19.122;2023-04-23T07:46:49;7.43;;;6.70;;
14872;SDS011;7528;48.576;19.122;2023-04-23T07:51:52;8.32;;;7.35;;
14872;SDS011;7528;48.576;19.122;2023-04-23T07:56:54;7.80;;;7.00;;
14872;SDS011;7528;48.576;19.122;2023-04-23T08:01:59;9.15;;;7.13;;
14872;SDS011;7528;48.576;19.122;2023-04-23T08:07:01;8.65;;;6.30;;
14872;SDS011;7528;48.576;19.122;2023-04-23T08:12:04;9.30;;;6.25;;
14872;SDS011;7528;48.576;19.122;2023-04-23T08:17:08;6.40;;;5.32;;
14872;SDS011;7528;48.576;19.122;2023-04-23T08:22:10;6.85;;;6.00;;
14872;SDS011;7528;48.576;19.122;2023-04-23T08:27:15;6.68;;;5.97;;
14872;SDS011;7528;48.576;19.122;2023-04-23T08:32:19;6.45;;;5.82;;
14872;SDS011;7528;48.576;19.122;2023-04-23T08:37:21;6.78;;;5.63;;
14872;SDS011;7528;48.576;19.122;2023-04-23T08:42:26;6.25;;;5.70;;
14872;SDS011;7528;48.576;19.122;2023-04-23T08:47:36;5.82;;;5.20;;
14872;SDS011;7528;48.576;19.122;2023-04-23T08:52:45;7.15;;;5.75;;
14872;SDS011;7528;48.576;19.122;2023-04-23T08:57:51;6.20;;;5.60;;
14872;SDS011;7528;48.576;19.122;2023-04-23T09:02:55;6.05;;;5.43;;
14872;SDS011;7528;48.576;19.122;2023-04-23T09:07:59;6.63;;;5.68;;
14872;SDS011;7528;48.576;19.122;2023-04-23T09:13:01;5.72;;;5.05;;
14872;SDS011;7528;48.576;19.122;2023-04-23T09:18:05;5.60;;;4.90;;
14872;SDS011;7528;48.576;19.122;2023-04-23T09:23:08;5.95;;;5.40;;
14872;SDS011;7528;48.576;19.122;2023-04-23T09:28:15;6.32;;;5.05;;
14872;SDS011;7528;48.576;19.122;2023-04-23T09:33:19;7.07;;;5.10;;
14872;SDS011;7528;48.576;19.122;2023-04-23T09:38:22;4.88;;;4.47;;
14872;SDS011;7528;48.576;19.122;2023-04-23T09:43:24;5.85;;;4.93;;
14872;SDS011;7528;48.576;19.122;2023-04-23T09:48:40;4.60;;;4.20;;
14872;SDS011;7528;48.576;19.122;2023-04-23T09:53:43;3.90;;;3.50;;
14872;SDS011;7528;48.576;19.122;2023-04-23T09:58:46;4.10;;;3.60;;
14872;SDS011;7528;48.576;19.122;2023-04-23T10:03:51;5.50;;;3.58;;
14872;SDS011;7528;48.576;19.122;2023-04-23T10:08:55;5.13;;;3.88;;
14872;SDS011;7528;48.576;19.122;2023-04-23T10:13:58;3.85;;;3.22;;
14872;SDS011;7528;48.576;19.122;2023-04-23T10:19:02;4.30;;;3.90;;
14872;SDS011;7528;48.576;19.122;2023-04-23T10:24:08;5.03;;;3.88;;
14872;SDS011;7528;48.576;19.122;2023-04-23T10:29:12;4.10;;;3.70;;
14872;SDS011;7528;48.576;19.122;2023-04-23T10:34:18;4.90;;;3.70;;
14872;SDS011;7528;48.576;19.122;2023-04-23T10:39:23;4.80;;;3.90;;
14872;SDS011;7528;48.576;19.122;2023-04-23T10:44:31;6.68;;;3.60;;
14872;SDS011;7528;48.576;19.122;2023-04-23T10:49:36;5.38;;;4.18;;
14872;SDS011;7528;48.576;19.122;2023-04-23T10:54:40;4.32;;;3.83;;
14872;SDS011;7528;48.576;19.122;2023-04-23T10:59:50;4.88;;;3.92;;
14872;SDS011;7528;48.576;19.122;2023-04-23T11:04:56;5.03;;;3.50;;
14872;SDS011;7528;48.576;19.122;2023-04-23T11:10:09;4.78;;;3.70;;
14872;SDS011;7528;48.576;19.122;2023-04-23T11:15:13;3.97;;;3.67;;
14872;SDS011;7528;48.576;19.122;2023-04-23T11:20:19;5.75;;;4.00;;
14872;SDS011;7528;48.576;19.122;2023-04-23T11:25:23;5.13;;;3.78;;
14872;SDS011;7528;48.576;19.122;2023-04-23T11:30:28;5.28;;;3.60;;
14872;SDS011;7528;48.576;19.122;2023-04-23T11:35:33;4.03;;;3.63;;
14872;SDS011;7528;48.576;19.122;2023-04-23T11:40:40;4.28;;;3.25;;
14872;SDS011;7528;48.576;19.122;2023-04-23T11:45:43;3.50;;;3.20;;
14872;SDS011;7528;48.576;19.122;2023-04-23T11:50:47;4.70;;;3.75;;
14872;SDS011;7528;48.576;19.122;2023-04-23T11:55:51;4.07;;;3.35;;
14872;SDS011;7528;48.576;19.122;2023-04-23T12:00:56;4.18;;;3.38;;
14872;SDS011;7528;48.576;19.122;2023-04-23T12:06:01;3.60;;;3.30;;
14872;SDS011;7528;48.576;19.122;2023-04-23T12:11:04;4.15;;;3.75;;
14872;SDS011;7528;48.576;19.122;2023-04-23T12:16:06;4.00;;;3.30;;
14872;SDS011;7528;48.576;19.122;2023-04-23T12:21:10;3.92;;;3.63;;
14872;SDS011;7528;48.576;19.122;2023-04-23T12:26:14;3.47;;;3.17;;
14872;SDS011;7528;48.576;19.122;2023-04-23T12:31:18;3.90;;;3.33;;
14872;SDS011;7528;48.576;19.122;2023-04-23T12:36:24;3.63;;;3.33;;
14872;SDS011;7528;48.576;19.122;2023-04-23T12:41:29;3.97;;;3.05;;
14872;SDS011;7528;48.576;19.122;2023-04-23T12:46:31;3.72;;;3.42;;
14872;SDS011;7528;48.576;19.122;2023-04-23T12:51:37;4.32;;;3.50;;
14872;SDS011;7528;48.576;19.122;2023-04-23T12:56:39;4.00;;;3.50;;
14872;SDS011;7528;48.576;19.122;2023-04-23T13:01:42;3.80;;;3.50;;
14872;SDS011;7528;48.576;19.122;2023-04-23T13:06:45;4.07;;;3.60;;
14872;SDS011;7528;48.576;19.122;2023-04-23T13:11:48;3.60;;;3.30;;
14872;SDS011;7528;48.576;19.122;2023-04-23T13:16:51;3.78;;;3.45;;
14872;SDS011;7528;48.576;19.122;2023-04-23T13:21:55;5.07;;;3.80;;
14872;SDS011;7528;48.576;19.122;2023-04-23T13:26:58;5.00;;;3.85;;
14872;SDS011;7528;48.576;19.122;2023-04-23T13:32:01;4.20;;;3.80;;
14872;SDS011;7528;48.576;19.122;2023-04-23T13:37:04;3.90;;;3.60;;
14872;SDS011;7528;48.576;19.122;2023-04-23T13:42:08;3.85;;;3.08;;
14872;SDS011;7528;48.576;19.122;2023-04-23T13:47:10;4.13;;;3.35;;
14872;SDS011;7528;48.576;19.122;2023-04-23T13:52:15;4.78;;;3.75;;
14872;SDS011;7528;48.576;19.122;2023-04-23T13:57:17;3.95;;;3.08;;
14872;SDS011;7528;48.576;19.122;2023-04-23T14:02:20;3.55;;;3.25;;
14872;SDS011;7528;48.576;19.122;2023-04-23T14:07:24;4.65;;;3.50;;
14872;SDS011;7528;48.576;19.122;2023-04-23T14:12:27;3.80;;;3.50;;
14872;SDS011;7528;48.576;19.122;2023-04-23T14:17:29;4.35;;;3.85;;
14872;SDS011;7528;48.576;19.122;2023-04-23T14:22:33;4.53;;;3.38;;
14872;SDS011;7528;48.576;19.122;2023-04-23T14:27:38;3.65;;;3.35;;
14872;SDS011;7528;48.576;19.122;2023-04-23T14:32:42;5.40;;;3.40;;
14872;SDS011;7528;48.576;19.122;2023-04-23T14:37:47;4.18;;;3.05;;
14872;SDS011;7528;48.576;19.122;2023-04-23T14:42:50;3.53;;;3.22;;
14872;SDS011;7528;48.576;19.122;2023-04-23T14:47:52;3.83;;;3.53;;
14872;SDS011;7528;48.576;19.122;2023-04-23T14:52:56;3.95;;;3.47;;
14872;SDS011;7528;48.576;19.122;2023-04-23T14:57:58;5.28;;;3.60;;
14872;SDS011;7528;48.576;19.122;2023-04-23T15:03:01;4.72;;;3.70;;
14872;SDS011;7528;48.576;19.122;2023-04-23T15:08:10;3.85;;;3.53;;
14872;SDS011;7528;48.576;19.122;2023-04-23T15:13:30;3.95;;;3.63;;
14872;SDS011;7528;48.576;19.122;2023-04-23T15:18:39;4.28;;;3.88;;
14872;SDS011;7528;48.576;19.122;2023-04-23T15:23:43;4.63;;;3.45;;
14872;SDS011;7528;48.576;19.122;2023-04-23T15:28:45;4.00;;;3.35;;
14872;SDS011;7528;48.576;19.122;2023-04-23T15:33:48;3.65;;;3.35;;
14872;SDS011;7528;48.576;19.122;2023-04-23T15:38:52;4.05;;;3.65;;
14872;SDS011;7528;48.576;19.122;2023-04-23T15:43:54;3.90;;;3.50;;
14872;SDS011;7528;48.576;19.122;2023-04-23T15:48:57;3.90;;;3.50;;
14872;SDS011;7528;48.576;19.122;2023-04-23T15:54:00;4.90;;;3.65;;
14872;SDS011;7528;48.576;19.122;2023-04-23T15:59:05;3.97;;;3.55;;
14872;SDS011;7528;48.576;19.122;2023-04-23T16:04:07;3.60;;;3.30;;
14872;SDS011;7528;48.576;19.122;2023-04-23T16:09:11;5.50;;;3.42;;
14872;SDS011;7528;48.576;19.122;2023-04-23T16:14:13;3.80;;;3.50;;
14872;SDS011;7528;48.576;19.122;2023-04-23T16:19:16;5.03;;;3.50;;
14872;SDS011;7528;48.576;19.122;2023-04-23T16:24:20;4.70;;;3.60;;
14872;SDS011;7528;48.576;19.122;2023-04-23T16:29:23;3.60;;;3.30;;
14872;SDS011;7528;48.576;19.122;2023-04-23T16:34:26;3.83;;;3.53;;
14872;SDS011;7528;48.576;19.122;2023-04-23T16:39:30;6.32;;;4.10;;
14872;SDS011;7528;48.576;19.122;2023-04-23T16:44:32;4.15;;;3.75;;
14872;SDS011;7528;48.576;19.122;2023-04-23T16:49:35;3.78;;;3.38;;
14872;SDS011;7528;48.576;19.122;2023-04-23T16:54:39;4.22;;;3.55;;
14872;SDS011;7528;48.576;19.122;2023-04-23T16:59:41;3.90;;;3.50;;
14872;SDS011;7528;48.576;19.122;2023-04-23T17:04:43;6.45;;;3.55;;
14872;SDS011;7528;48.576;19.122;2023-04-23T17:09:47;3.90;;;3.50;;
14872;SDS011;7528;48.576;19.122;2023-04-23T17:14:50;4.90;;;3.67;;
14872;SDS011;7528;48.576;19.122;2023-04-23T17:19:52;3.72;;;3.20;;
14872;SDS011;7528;48.576;19.122;2023-04-23T17:24:56;3.80;;;3.50;;
14872;SDS011;7528;48.576;19.122;2023-04-23T17:29:58;4.28;;;3.50;;
14872;SDS011;7528;48.576;19.122;2023-04-23T17:35:01;4.13;;;3.58;;
14872;SDS011;7528;48.576;19.122;2023-04-23T17:40:06;5.57;;;3.63;;
14872;SDS011;7528;48.576;19.122;2023-04-23T17:45:10;4.57;;;3.58;;
14872;SDS011;7528;48.576;19.122;2023-04-23T17:50:13;4.18;;;3.70;;
14872;SDS011;7528;48.576;19.122;2023-04-23T17:55:17;7.63;;;6.68;;
14872;SDS011;7528;48.576;19.122;2023-04-23T18:00:21;4.40;;;4.00;;
14872;SDS011;7528;48.576;19.122;2023-04-23T18:05:24;13.63;;;12.40;;
14872;SDS011;7528;48.576;19.122;2023-04-23T18:10:28;5.72;;;4.43;;
14872;SDS011;7528;48.576;19.122;2023-04-23T18:15:30;4.18;;;3.80;;
14872;SDS011;7528;48.576;19.122;2023-04-23T18:20:33;4.93;;;4.13;;
14872;SDS011;7528;48.576;19.122;2023-04-23T18:25:39;4.90;;;4.50;;
14872;SDS011;7528;48.576;19.122;2023-04-23T18:30:41;4.63;;;4.22;;
14872;SDS011;7528;48.576;19.122;2023-04-23T18:35:46;4.38;;;3.95;;
14872;SDS011;7528;48.576;19.122;2023-04-23T18:40:50;4.63;;;4.18;;
14872;SDS011;7528;48.576;19.122;2023-04-23T18:45:53;6.07;;;4.47;;
14872;SDS011;7528;48.576;19.122;2023-04-23T18:50:56;5.45;;;3.90;;
14872;SDS011;7528;48.576;19.122;2023-04-23T18:56:00;11.43;;;8.10;;
14872;SDS011;7528;48.576;19.122;2023-04-23T19:01:02;4.68;;;4.05;;
14872;SDS011;7528;48.576;19.122;2023-04-23T19:06:05;5.18;;;4.30;;
14872;SDS011;7528;48.576;19.122;2023-04-23T19:11:09;5.70;;;5.05;;
14872;SDS011;7528;48.576;19.122;2023-04-23T19:16:11;4.80;;;4.40;;
14872;SDS011;7528;48.576;19.122;2023-04-23T19:21:16;4.78;;;3.80;;
14872;SDS011;7528;48.576;19.122;2023-04-23T19:26:19;4.28;;;3.85;;
14872;SDS011;7528;48.576;19.122;2023-04-23T19:31:22;5.30;;;3.90;;
14872;SDS011;7528;48.576;19.122;2023-04-23T19:36:25;5.28;;;4.78;;
14872;SDS011;7528;48.576;19.122;2023-04-23T19:41:29;6.80;;;5.57;;
14872;SDS011;7528;48.576;19.122;2023-04-23T19:46:31;16.77;;;10.73;;
14872;SDS011;7528;48.576;19.122;2023-04-23T19:51:33;6.43;;;5.75;;
14872;SDS011;7528;48.576;19.122;2023-04-23T19:56:38;10.00;;;8.15;;
14872;SDS011;7528;48.576;19.122;2023-04-23T20:01:41;18.65;;;15.40;;
14872;SDS011;7528;48.576;19.122;2023-04-23T20:06:43;17.20;;;14.85;;
14872;SDS011;7528;48.576;19.122;2023-04-23T20:11:47;10.85;;;9.75;;
14872;SDS011;7528;48.576;19.122;2023-04-23T20:16:49;6.72;;;6.00;;
14872;SDS011;7528;48.576;19.122;2023-04-23T20:21:52;5.35;;;4.85;;
14872;SDS011;7528;48.576;19.122;2023-04-23T20:26:56;12.30;;;9.93;;
14872;SDS011;7528;48.576;19.122;2023-04-23T20:31:58;11.95;;;10.65;;
14872;SDS011;7528;48.576;19.122;2023-04-23T20:37:00;7.97;;;7.18;;
14872;SDS011;7528;48.576;19.122;2023-04-23T20:42:04;6.93;;;6.20;;
14872;SDS011;7528;48.576;19.122;2023-04-23T20:47:08;18.75;;;15.55;;
14872;SDS011;7528;48.576;19.122;2023-04-23T20:52:10;30.60;;;22.48;;
14872;SDS011;7528;48.576;19.122;2023-04-23T20:57:15;56.72;;;38.95;;
14872;SDS011;7528;48.576;19.122;2023-04-23T21:02:17;37.30;;;25.80;;
14872;SDS011;7528;48.576;19.122;2023-04-23T21:07:20;43.17;;;30.48;;
14872;SDS011;7528;48.576;19.122;2023-04-23T21:12:24;30.08;;;20.58;;
14872;SDS011;7528;48.576;19.122;2023-04-23T21:17:26;9.63;;;7.40;;
14872;SDS011;7528;48.576;19.122;2023-04-23T21:22:29;50.97;;;32.75;;
14872;SDS011;7528;48.576;19.122;2023-04-23T21:27:33;46.63;;;30.00;;
14872;SDS011;7528;48.576;19.122;2023-04-23T21:32:36;52.03;;;36.00;;
14872;SDS011;7528;48.576;19.122;2023-04-23T21:37:38;29.80;;;21.13;;
14872;SDS011;7528;48.576;19.122;2023-04-23T21:42:42;38.37;;;27.27;;
14872;SDS011;7528;48.576;19.122;2023-04-23T21:47:45;52.80;;;35.20;;
14872;SDS011;7528;48.576;19.122;2023-04-23T21:52:48;27.20;;;19.63;;
14872;SDS011;7528;48.576;19.122;2023-04-23T21:57:54;29.83;;;20.67;;
14872;SDS011;7528;48.576;19.122;2023-04-23T22:02:56;29.13;;;20.07;;
14872;SDS011;7528;48.576;19.122;2023-04-23T22:07:59;16.97;;;13.67;;
14872;SDS011;7528;48.576;19.122;2023-04-23T22:13:03;19.00;;;13.53;;
14872;SDS011;7528;48.576;19.122;2023-04-23T22:18:05;19.27;;;14.87;;
14872;SDS011;7528;48.576;19.122;2023-04-23T22:23:08;17.43;;;13.33;;
14872;SDS011;7528;48.576;19.122;2023-04-23T22:28:12;10.57;;;8.20;;
14872;SDS011;7528;48.576;19.122;2023-04-23T22:33:15;28.33;;;18.70;;
14872;SDS011;7528;48.576;19.122;2023-04-23T22:38:17;36.90;;;23.67;;
14872;SDS011;7528;48.576;19.122;2023-04-23T22:43:22;18.57;;;13.47;;
14872;SDS011;7528;48.576;19.122;2023-04-23T22:48:24;16.80;;;13.03;;
14872;SDS011;7528;48.576;19.122;2023-04-23T22:53:28;23.57;;;17.80;;
14872;SDS011;7528;48.576;19.122;2023-04-23T22:58:32;17.57;;;13.80;;
14872;SDS011;7528;48.576;19.122;2023-04-23T23:03:34;15.93;;;11.70;;
14872;SDS011;7528;48.576;19.122;2023-04-23T23:08:37;27.07;;;19.93;;
14872;SDS011;7528;48.576;19.122;2023-04-23T23:13:41;31.80;;;22.63;;
14872;SDS011;7528;48.576;19.122;2023-04-23T23:18:44;24.90;;;19.17;;
14872;SDS011;7528;48.576;19.122;2023-04-23T23:23:47;29.77;;;22.90;;
14872;SDS011;7528;48.576;19.122;2023-04-23T23:28:51;21.67;;;17.30;;
14872;SDS011;7528;48.576;19.122;2023-04-23T23:33:53;17.37;;;15.10;;
14872;SDS011;7528;48.576;19.122;2023-04-23T23:38:56;17.50;;;13.47;;
14872;SDS011;7528;48.576;19.122;2023-04-23T23:44:00;15.00;;;12.33;;
14872;SDS011;7528;48.576;19.122;2023-04-23T23:49:03;14.80;;;12.57;;
14872;SDS011;7528;48.576;19.122;2023-04-23T23:54:06;16.07;;;13.27;;
14872;SDS011;7528;48.576;19.122;2023-04-23T23:59:10;16.80;;;13.50;;
